1888 Tropical Storm NOT_NAMED (1888276N14297)


IBTrACS version v04r00. Visit IBTrACS website for data access.
Please direct all questions to the IBTrACS Q and A forum

Storm track - Intensity - Wind Radii - Intensity Data - Source Data - All data

Summary Information

Storm ID 1888276N14297
Start Oct 1 12Z
Landfall Oct 2 18Z
Max Intensity 45 kt (Oct 6 18Z)
End Oct 8 12Z
ATCF IDs
Track status Best track data.

Storm track plot

Map of storm track

Intensity plots

Map of storm track

Radial wind information

No radial wind information for this storm


Position and Intensity Table

BASIN ISO_TIME_________ NATURE LAT LON MLC WIND
degrees north degrees east kts
NA 1888-10-01 12:00:00 TS 14.20 -63.00 30
NA 15:00:00 TS 14.66 -63.31 30
NA 18:00:00 TS 15.10 -63.60 30
NA 21:00:00 TS 15.51 -63.85 30
NA 1888-10-02 00:00:00 TS 15.90 -64.10 30
NA 03:00:00 TS 16.30 -64.40 30
NA 06:00:00 TS 16.70 -64.70 30
NA 09:00:00 TS 17.10 -64.96 30
NA 12:00:00 TS 17.50 -65.20 30
NA 15:00:00 TS 17.91 -65.46 30
NA 18:00:00 TS 18.30 -65.70 30
NA 21:00:00 TS 18.65 -65.90 30
NA 1888-10-03 00:00:00 TS 19.00 -66.10 30
NA 03:00:00 TS 19.40 -66.35 30
NA 06:00:00 TS 19.80 -66.60 30
NA 09:00:00 TS 20.15 -66.80 30
NA 12:00:00 TS 20.50 -67.00 30
NA 15:00:00 TS 20.90 -67.25 30
NA 18:00:00 TS 21.30 -67.50 30
NA 21:00:00 TS 21.65 -67.70 30
NA 1888-10-04 00:00:00 TS 22.00 -67.90 30
NA 03:00:00 TS 22.40 -68.15 30
NA 06:00:00 TS 22.80 -68.40 30
NA 09:00:00 TS 23.17 -68.62 30
NA 12:00:00 TS 23.50 -68.80 30
NA 15:00:00 TS 23.76 -68.92 30
NA 18:00:00 TS 24.00 -69.00 30
NA 21:00:00 TS 24.25 -69.10 30
NA 1888-10-05 00:00:00 TS 24.50 -69.20 30
NA 03:00:00 TS 24.75 -69.31 32
NA 06:00:00 TS 25.00 -69.40 35
NA 09:00:00 TS 25.25 -69.47 35
NA 12:00:00 TS 25.50 -69.50 35
NA 15:00:00 TS 25.75 -69.52 35
NA 18:00:00 TS 26.00 -69.50 35
NA 21:00:00 TS 26.25 -69.41 35
NA 1888-10-06 00:00:00 TS 26.50 -69.30 35
NA 03:00:00 TS 26.75 -69.25 35
NA 06:00:00 TS 27.00 -69.20 35
NA 09:00:00 TS 27.23 -69.14 37
NA 12:00:00 TS 27.50 -69.00 40
NA 15:00:00 TS 27.84 -68.68 42
NA 18:00:00 TS 28.20 -68.30 45
NA 21:00:00 TS 28.55 -67.99 45
NA 1888-10-07 00:00:00 TS 28.90 -67.70 45
NA 03:00:00 TS 29.26 -67.40 45
NA 06:00:00 TS 29.60 -67.10 45
NA 09:00:00 TS 29.88 -66.81 45
NA 12:00:00 TS 30.20 -66.50 45
NA 15:00:00 TS 30.63 -66.12 45
NA 18:00:00 TS 31.10 -65.70 45
NA 21:00:00 TS 31.51 -65.26 45
NA 1888-10-08 00:00:00 TS 31.90 -64.80 45
NA 03:00:00 TS 32.30 -64.35 42
NA 06:00:00 TS 32.70 -63.90 40
NA 09:00:00 TS 33.10 -63.45 37
NA 12:00:00 TS 33.50 -63.00 35

Source Information

Agency Information
USA
TOKYO
CMA
HKO
NEWDELHI
REUNION
BOM
NADI
WELLINGTON
DS824
TD9636
TD9635
NEUMANN
MLC

All available IBTrACS Data

SEASON BASIN SUBBASIN ISO_TIME_________ NATURE LAT LON DIST2LAND LANDFALL IFLAG USA SSHS MLC LAT MLC LON MLC CLASS MLC WIND STORM SPEED STORM DIR
Year degrees north degrees east km km 1 degrees north degrees east kts kts degrees
1888 NA CS 1888-10-01 12:00:00 TS 14.20 -63.00 391 391 _____________O -1 14.20 -63.00 TD 30 11 327
1888 NA CS 15:00:00 TS 14.66 -63.31 448 400 _____________P -1 14.66 -63.31 TD 30 11 327
1888 NA CS 18:00:00 TS 15.10 -63.60 400 351 _____________O -1 15.10 -63.60 TD 30 10 328
1888 NA CS 21:00:00 TS 15.51 -63.85 345 296 _____________P -1 15.51 -63.85 TD 30 9 329
1888 NA CS 1888-10-02 00:00:00 TS 15.90 -64.10 296 241 _____________O -1 15.90 -64.10 TD 30 10 326
1888 NA CS 03:00:00 TS 16.30 -64.40 241 186 _____________P -1 16.30 -64.40 TD 30 10 324
1888 NA CS 06:00:00 TS 16.70 -64.70 186 138 _____________O -1 16.70 -64.70 TD 30 10 326
1888 NA CS 09:00:00 TS 17.10 -64.96 131 84 _____________P -1 17.10 -64.96 TD 30 9 329
1888 NA CS 12:00:00 TS 17.50 -65.20 84 39 _____________O -1 17.50 -65.20 TD 30 9 329
1888 NA CS 15:00:00 TS 17.91 -65.46 33 0 _____________P -1 17.91 -65.46 TD 30 9 329
1888 NA CS 18:00:00 TS 18.30 -65.70 0 0 _____________O -1 18.30 -65.70 TD 30 9 330
1888 NA NA 21:00:00 TS 18.65 -65.90 22 22 _____________P -1 18.65 -65.90 TD 30 8 332
1888 NA NA 1888-10-03 00:00:00 TS 19.00 -66.10 67 67 _____________O -1 19.00 -66.10 TD 30 9 330
1888 NA NA 03:00:00 TS 19.40 -66.35 111 111 _____________P -1 19.40 -66.35 TD 30 9 329
1888 NA NA 06:00:00 TS 19.80 -66.60 156 156 _____________O -1 19.80 -66.60 TD 30 9 331
1888 NA NA 09:00:00 TS 20.15 -66.80 190 190 _____________P -1 20.15 -66.80 TD 30 8 332
1888 NA NA 12:00:00 TS 20.50 -67.00 234 234 _____________O -1 20.50 -67.00 TD 30 9 331
1888 NA NA 15:00:00 TS 20.90 -67.25 276 271 _____________P -1 20.90 -67.25 TD 30 9 330
1888 NA NA 18:00:00 TS 21.30 -67.50 291 291 _____________O -1 21.30 -67.50 TD 30 9 331
1888 NA NA 21:00:00 TS 21.65 -67.70 306 306 _____________P -1 21.65 -67.70 TD 30 8 332
1888 NA NA 1888-10-04 00:00:00 TS 22.00 -67.90 335 335 _____________O -1 22.00 -67.90 TD 30 9 331
1888 NA NA 03:00:00 TS 22.40 -68.15 368 364 _____________P -1 22.40 -68.15 TD 30 9 330
1888 NA NA 06:00:00 TS 22.80 -68.40 394 394 _____________O -1 22.80 -68.40 TD 30 9 331
1888 NA NA 09:00:00 TS 23.17 -68.62 427 424 _____________P -1 23.17 -68.62 TD 30 8 332
1888 NA NA 12:00:00 TS 23.50 -68.80 453 453 _____________O -1 23.50 -68.80 TD 30 7 336
1888 NA NA 15:00:00 TS 23.76 -68.92 480 480 _____________P -1 23.76 -68.92 TD 30 5 340
1888 NA NA 18:00:00 TS 24.00 -69.00 497 497 _____________O -1 24.00 -69.00 TD 30 5 341
1888 NA NA 21:00:00 TS 24.25 -69.10 515 515 _____________P -1 24.25 -69.10 TD 30 5 340
1888 NA NA 1888-10-05 00:00:00 TS 24.50 -69.20 536 536 _____________O -1 24.50 -69.20 TD 30 5 339
1888 NA NA 03:00:00 TS 24.75 -69.31 552 552 _____________P -1 24.75 -69.31 TD 32 5 340
1888 NA NA 06:00:00 TS 25.00 -69.40 561 561 _____________O -1 25.00 -69.40 TS 35 5 344
1888 NA NA 09:00:00 TS 25.25 -69.47 572 572 _____________P -1 25.25 -69.47 TS 35 5 350
1888 NA NA 12:00:00 TS 25.50 -69.50 598 598 _____________O -1 25.50 -69.50 TS 35 5 353
1888 NA NA 15:00:00 TS 25.75 -69.52 616 616 _____________P -1 25.75 -69.52 TS 35 5 2
1888 NA NA 18:00:00 TS 26.00 -69.50 644 644 _____________O -1 26.00 -69.50 TS 35 5 12
1888 NA NA 21:00:00 TS 26.25 -69.41 677 677 _____________P -1 26.25 -69.41 TS 35 5 20
1888 NA NA 1888-10-06 00:00:00 TS 26.50 -69.30 701 701 _____________O -1 26.50 -69.30 TS 35 5 16
1888 NA NA 03:00:00 TS 26.75 -69.25 725 725 _____________P -1 26.75 -69.25 TS 35 5 10
1888 NA NA 06:00:00 TS 27.00 -69.20 753 753 _____________O -1 27.00 -69.20 TS 35 5 11
1888 NA NA 09:00:00 TS 27.23 -69.14 778 778 _____________P -1 27.23 -69.14 TS 37 5 20
1888 NA NA 12:00:00 TS 27.50 -69.00 811 811 _____________O -1 27.50 -69.00 TS 40 7 34
1888 NA NA 15:00:00 TS 27.84 -68.68 855 855 _____________P -1 27.84 -68.68 TS 42 9 41
1888 NA NA 18:00:00 TS 28.20 -68.30 914 914 _____________O -1 28.20 -68.30 TS 45 9 40
1888 NA NA 21:00:00 TS 28.55 -67.99 958 958 _____________P -1 28.55 -67.99 TS 45 9 37
1888 NA NA 1888-10-07 00:00:00 TS 28.90 -67.70 1011 1011 _____________O -1 28.90 -67.70 TS 45 9 36
1888 NA NA 03:00:00 TS 29.26 -67.40 1043 1043 _____________P -1 29.26 -67.40 TS 45 9 37
1888 NA NA 06:00:00 TS 29.60 -67.10 1044 1043 _____________O -1 29.60 -67.10 TS 45 8 39
1888 NA NA 09:00:00 TS 29.88 -66.81 1043 1043 _____________P -1 29.88 -66.81 TS 45 8 41
1888 NA NA 12:00:00 TS 30.20 -66.50 1044 1037 _____________O -1 30.20 -66.50 TS 45 10 39
1888 NA NA 15:00:00 TS 30.63 -66.12 1047 1040 _____________P -1 30.63 -66.12 TS 45 11 37
1888 NA NA 18:00:00 TS 31.10 -65.70 1047 1047 _____________O -1 31.10 -65.70 TS 45 11 40
1888 NA NA 21:00:00 TS 31.51 -65.26 1056 1056 _____________P -1 31.51 -65.26 TS 45 11 44
1888 NA NA 1888-10-08 00:00:00 TS 31.90 -64.80 1076 1076 _____________O -1 31.90 -64.80 TS 45 11 44
1888 NA NA 03:00:00 TS 32.30 -64.35 1100 1095 _____________P -1 32.30 -64.35 TS 42 11 44
1888 NA NA 06:00:00 TS 32.70 -63.90 1117 1115 _____________O -1 32.70 -63.90 TS 40 11 43
1888 NA NA 09:00:00 TS 33.10 -63.45 1115 1095 _____________P -1 33.10 -63.45 TS 37 11 43
1888 NA NA 12:00:00 TS 33.50 -63.00 1100 _____________O -1 33.50 -63.00 TS 35 11 43